Time;durP1;ratioP1;P1;durP2;ratioP2;P2;SDS_P1;SDS_P2;PMS_P1;PMS_P2;Temp;Humidity;BMP_temperature;BMP_pressure;BME280_temperature;BME280_humidity;BME280_pressure;Samples;Min_cycle;Max_cycle;Signal;HPM_P1;HPM_P2
2022/09/28 00:00:34;;;;;;;2.67;1.40;;;;;;;12.04;87.50;98734.56;4988603;28;20791;-61
2022/09/28 00:03:02;;;;;;;2.40;1.30;;;;;;;12.00;88.63;98735.13;4991909;28;20579;-62
2022/09/28 00:05:29;;;;;;;5.33;1.30;;;;;;;12.03;88.34;98729.44;4991396;28;20210;-62
2022/09/28 00:07:58;;;;;;;4.67;1.50;;;;;;;12.04;88.68;98733.75;4988818;28;20217;-61
2022/09/28 00:10:26;;;;;;;4.47;1.60;;;;;;;12.04;88.95;98725.78;4990868;28;20209;-61
2022/09/28 00:12:55;;;;;;;5.30;1.80;;;;;;;12.05;89.03;98722.06;4991581;28;20384;-62
2022/09/28 00:15:23;;;;;;;4.70;1.63;;;;;;;12.05;89.49;98714.91;4991381;28;20205;-63
2022/09/28 00:17:51;;;;;;;3.03;1.60;;;;;;;12.02;89.92;98709.19;4984237;28;20234;-63
2022/09/28 00:20:19;;;;;;;4.30;1.70;;;;;;;12.00;90.58;98703.25;4990720;28;20276;-62
2022/09/28 00:22:46;;;;;;;4.00;1.90;;;;;;;12.05;90.37;98695.50;4991271;28;20268;-62
2022/09/28 00:25:16;;;;;;;4.30;1.60;;;;;;;12.04;90.48;98700.03;4991365;28;20210;-61
2022/09/28 00:27:49;;;;;;;5.23;1.73;;;;;;;12.06;90.41;98699.78;4982547;28;20864;-62
2022/09/28 00:30:17;;;;;;;4.13;1.60;;;;;;;12.00;90.75;98696.13;4985801;28;20292;-63
2022/09/28 00:32:45;;;;;;;4.13;1.73;;;;;;;11.99;91.29;98694.47;4991689;28;20245;-62
2022/09/28 00:35:12;;;;;;;6.50;1.70;;;;;;;11.97;91.74;98685.06;4991172;28;20218;-63
2022/09/28 00:37:40;;;;;;;5.93;1.77;;;;;;;11.98;91.93;98670.75;4994055;28;20280;-63
2022/09/28 00:40:08;;;;;;;5.43;1.77;;;;;;;11.98;91.58;98671.59;4991036;28;20214;-62
2022/09/28 00:42:37;;;;;;;5.80;2.27;;;;;;;11.92;92.82;98671.56;4985754;28;20604;-60
2022/09/28 00:45:07;;;;;;;5.07;1.77;;;;;;;11.97;92.81;98659.31;4986717;28;20214;-62
2022/09/28 00:47:42;;;;;;;6.50;1.50;;;;;;;12.02;92.48;98648.09;4988329;28;20604;-62
2022/09/28 00:50:22;;;;;;;5.17;1.43;;;;;;;12.01;92.81;98652.59;4986342;28;20549;-62
2022/09/28 00:52:55;;;;;;;6.03;1.73;;;;;;;12.00;92.88;98642.16;4992588;28;20194;-61
2022/09/28 00:55:31;;;;;;;3.63;1.30;;;;;;;11.98;93.21;98644.19;4994600;28;20230;-62
2022/09/28 00:58:03;;;;;;;3.33;1.30;;;;;;;12.01;93.07;98643.81;4992682;28;20217;-61
2022/09/28 01:00:31;;;;;;;3.97;1.30;;;;;;;12.03;92.65;98628.50;4994360;28;20264;-58
2022/09/28 01:02:59;;;;;;;2.60;1.30;;;;;;;12.04;92.31;98627.47;4998247;28;20301;-62
2022/09/28 01:05:27;;;;;;;2.97;1.27;;;;;;;12.02;92.67;98630.34;4991249;28;20228;-62
2022/09/28 01:07:56;;;;;;;6.43;1.43;;;;;;;12.02;92.88;98633.00;4995060;28;20213;-62
2022/09/28 01:10:24;;;;;;;3.27;1.30;;;;;;;12.04;92.35;98616.84;5000223;28;20619;-63
2022/09/28 01:12:52;;;;;;;3.03;1.20;;;;;;;12.00;92.94;98619.09;4997756;28;20214;-63
2022/09/28 01:15:23;;;;;;;4.97;1.53;;;;;;;12.02;92.92;98621.53;4995422;28;20206;-62
2022/09/28 01:18:04;;;;;;;4.73;1.20;;;;;;;12.00;93.09;98615.63;4999193;28;20215;-63
2022/09/28 01:20:55;;;;;;;3.07;1.03;;;;;;;11.98;93.04;98613.16;4996168;28;20276;-63
2022/09/28 01:24:16;;;;;;;2.70;1.37;;;;;;;11.99;93.58;98619.28;4981683;28;20267;-62
2022/09/28 01:27:04;;;;;;;2.47;0.90;;;;;;;12.05;93.33;98607.84;4934571;28;20210;-60
2022/09/28 01:29:42;;;;;;;2.97;1.10;;;;;;;12.06;92.64;98609.47;4991527;28;20208;-61
2022/09/28 01:32:23;;;;;;;3.53;1.40;;;;;;;12.00;93.03;98613.78;4987334;28;20299;-63
2022/09/28 01:34:58;;;;;;;3.13;1.17;;;;;;;12.07;93.28;98616.44;5007509;28;20657;-61
2022/09/28 01:37:35;;;;;;;3.27;1.27;;;;;;;12.14;92.30;98606.63;4990736;28;20210;-62
2022/09/28 01:40:07;;;;;;;2.90;0.90;;;;;;;12.17;92.19;98606.22;4990811;28;20248;-63
2022/09/28 01:42:39;;;;;;;1.57;0.70;;;;;;;12.18;92.18;98601.72;4994464;28;20202;-61
2022/09/28 01:45:14;;;;;;;2.67;0.90;;;;;;;12.16;92.41;98603.78;4993313;28;20206;-62
2022/09/28 01:47:46;;;;;;;4.20;0.90;;;;;;;12.24;91.96;98606.22;4991466;28;20214;-62
2022/09/28 01:50:17;;;;;;;3.80;1.07;;;;;;;12.21;92.17;98593.38;4981910;28;20281;-61
2022/09/28 01:52:50;;;;;;;4.50;1.00;;;;;;;12.18;92.66;98604.41;4994280;28;20212;-61
2022/09/28 01:55:25;;;;;;;3.73;1.03;;;;;;;12.18;92.73;98591.94;4993330;28;20279;-60
2022/09/28 01:57:58;;;;;;;5.03;1.10;;;;;;;12.14;92.63;98585.38;4993890;28;20268;-61
2022/09/28 02:00:27;;;;;;;3.73;0.90;;;;;;;12.15;93.28;98587.00;4993463;28;20660;-62
2022/09/28 02:03:01;;;;;;;2.33;0.90;;;;;;;12.18;92.89;98586.63;4993816;28;20210;-62
2022/09/28 02:05:32;;;;;;;1.67;0.73;;;;;;;12.29;92.18;98593.97;4992368;28;20221;-60
2022/09/28 02:08:05;;;;;;;1.57;0.60;;;;;;;12.33;91.42;98587.22;4993164;28;20621;-60
2022/09/28 02:10:38;;;;;;;2.57;1.10;;;;;;;12.37;91.07;98575.16;5005351;28;20206;-62
2022/09/28 02:13:13;;;;;;;2.03;0.70;;;;;;;12.47;90.64;98584.56;4993746;28;20229;-61
2022/09/28 02:15:45;;;;;;;0.93;0.50;;;;;;;12.49;90.08;98579.88;4990652;28;20217;-61
2022/09/28 02:18:13;;;;;;;1.60;0.60;;;;;;;12.50;90.01;98584.13;4993942;28;20535;-62
2022/09/28 02:20:46;;;;;;;2.17;0.60;;;;;;;12.56;89.58;98578.03;4993146;28;20230;-62
2022/09/28 02:23:16;;;;;;;1.00;0.50;;;;;;;12.65;88.70;98568.81;4994158;28;20694;-60
2022/09/28 02:25:48;;;;;;;4.30;0.50;;;;;;;12.53;88.68;98568.59;4992937;28;20206;-61
2022/09/28 02:28:17;;;;;;;1.77;0.60;;;;;;;12.56;89.57;98567.38;4987897;28;20222;-62
2022/09/28 02:30:45;;;;;;;1.30;0.53;;;;;;;12.58;88.99;98562.66;4994619;28;20217;-62
2022/09/28 02:33:18;;;;;;;0.97;0.30;;;;;;;12.59;88.70;98567.78;4993139;28;20255;-62
2022/09/28 02:35:46;;;;;;;1.80;0.50;;;;;;;12.60;88.79;98564.09;4992720;28;20206;-63
2022/09/28 02:38:15;;;;;;;1.10;0.43;;;;;;;12.71;87.63;98566.13;4995864;28;20222;-61
2022/09/28 02:40:47;;;;;;;1.33;0.40;;;;;;;12.77;87.20;98567.13;4991939;28;20230;-62
2022/09/28 02:43:24;;;;;;;1.40;0.47;;;;;;;12.84;86.54;98572.44;4992582;28;20297;-61
2022/09/28 02:46:00;;;;;;;2.63;0.70;;;;;;;12.93;85.37;98568.53;4992372;28;20701;-61
2022/09/28 02:48:44;;;;;;;2.40;0.50;;;;;;;12.88;85.06;98569.16;4992783;28;20297;-62
2022/09/28 02:51:38;;;;;;;1.83;0.50;;;;;;;12.90;84.64;98566.28;4988723;28;20241;-61
2022/09/28 02:54:30;;;;;;;7.77;0.60;;;;;;;12.86;84.36;98555.25;4992256;28;20268;-65
2022/09/28 02:57:11;;;;;;;1.37;0.60;;;;;;;12.85;85.08;98550.94;4991357;28;20362;-63
2022/09/28 02:59:53;;;;;;;2.57;0.57;;;;;;;12.84;84.50;98559.94;4992721;28;20286;-63
2022/09/28 03:02:27;;;;;;;1.80;0.50;;;;;;;12.79;85.09;98551.78;4985950;28;20276;-62
2022/09/28 03:05:07;;;;;;;1.13;0.40;;;;;;;12.80;84.77;98550.75;4992176;28;20663;-63
2022/09/28 03:07:39;;;;;;;1.30;0.57;;;;;;;12.82;84.43;98551.38;4996490;28;20205;-62
2022/09/28 03:10:16;;;;;;;1.70;0.80;;;;;;;12.76;84.79;98553.00;4998633;28;20219;-62
2022/09/28 03:12:47;;;;;;;3.23;0.73;;;;;;;12.74;84.94;98559.59;4992546;28;20210;-62
2022/09/28 03:15:22;;;;;;;1.43;0.70;;;;;;;12.77;84.64;98551.16;4991428;28;20221;-62
2022/09/28 03:17:49;;;;;;;2.60;0.77;;;;;;;12.85;84.35;98555.44;4990857;28;20202;-62
2022/09/28 03:20:18;;;;;;;2.70;0.80;;;;;;;12.84;84.28;98562.59;4988379;28;21273;-62
2022/09/28 03:22:46;;;;;;;4.67;1.00;;;;;;;12.81;84.41;98555.88;4991845;28;20207;-62
2022/09/28 03:25:34;;;;;;;3.97;0.90;;;;;;;12.81;84.58;98566.53;4991296;28;20698;-63
2022/09/28 03:28:01;;;;;;;2.57;0.97;;;;;;;12.80;85.05;98572.88;4992059;28;20210;-62
2022/09/28 03:30:30;;;;;;;6.07;1.30;;;;;;;12.78;85.21;98563.44;4991753;28;20203;-62
2022/09/28 03:32:59;;;;;;;6.50;2.30;;;;;;;12.72;85.38;98567.75;4991323;28;20247;-62
2022/09/28 03:35:26;;;;;;;4.10;1.20;;;;;;;12.73;85.40;98580.03;4990077;28;20611;-62
2022/09/28 03:37:55;;;;;;;4.10;1.20;;;;;;;12.78;85.16;98579.41;4995614;28;20588;-63
2022/09/28 03:40:23;;;;;;;2.97;1.20;;;;;;;12.81;84.80;98581.66;4990650;28;20677;-62
2022/09/28 03:42:52;;;;;;;5.20;1.30;;;;;;;12.85;84.43;98572.22;4990490;28;20201;-63
2022/09/28 03:45:20;;;;;;;2.67;1.07;;;;;;;12.83;84.23;98568.97;4992035;28;20213;-62
2022/09/28 03:47:49;;;;;;;2.47;1.13;;;;;;;12.82;84.32;98564.69;4991906;28;20674;-62
2022/09/28 03:50:17;;;;;;;3.13;1.20;;;;;;;12.81;84.32;98565.69;4997109;28;20214;-62
2022/09/28 03:52:44;;;;;;;4.97;1.47;;;;;;;12.74;84.84;98565.72;4991701;28;20663;-62
2022/09/28 03:55:12;;;;;;;4.07;1.40;;;;;;;12.72;85.47;98566.94;4991559;28;20268;-62
2022/09/28 03:57:39;;;;;;;3.17;1.30;;;;;;;12.70;85.19;98569.81;4991715;28;20218;-61
2022/09/28 04:00:09;;;;;;;3.30;1.50;;;;;;;12.67;85.34;98569.41;4990350;28;20238;-61
2022/09/28 04:02:36;;;;;;;5.47;1.50;;;;;;;12.69;85.13;98572.66;4992090;28;20625;-61
2022/09/28 04:05:06;;;;;;;4.80;1.53;;;;;;;12.74;84.54;98567.56;4991865;28;20226;-62
2022/09/28 04:07:33;;;;;;;3.77;1.80;;;;;;;12.76;84.51;98562.84;4994953;28;20251;-62
2022/09/28 04:10:01;;;;;;;4.77;1.70;;;;;;;12.79;84.21;98562.44;4986073;28;20312;-62
2022/09/28 04:12:29;;;;;;;4.77;1.40;;;;;;;12.75;84.21;98562.00;4986439;28;20206;-62
2022/09/28 04:14:56;;;;;;;7.03;1.97;;;;;;;12.77;83.87;98564.47;4983545;28;20669;-62
2022/09/28 04:17:24;;;;;;;3.93;1.60;;;;;;;12.73;84.13;98565.94;4991484;28;20210;-62
2022/09/28 04:19:52;;;;;;;6.20;1.90;;;;;;;12.69;84.41;98562.03;4991159;28;20218;-60
2022/09/28 04:22:22;;;;;;;5.50;1.90;;;;;;;12.73;84.17;98557.94;4989464;28;20334;-61
2022/09/28 04:24:49;;;;;;;5.47;1.57;;;;;;;12.80;83.77;98561.41;4987497;28;20215;-61
2022/09/28 04:30:03;;;;;;;7.00;2.23;;;;;;;12.70;83.90;98564.50;4994852;28;20265;-62
2022/09/28 04:32:31;;;;;;;3.77;2.03;;;;;;;12.74;83.56;98564.91;4992634;28;20241;-62
2022/09/28 04:34:59;;;;;;;5.53;1.70;;;;;;;12.73;83.93;98563.25;4994099;28;20210;-63
2022/09/28 04:37:30;;;;;;;3.97;1.70;;;;;;;12.70;84.04;98566.34;4999169;28;20210;-62
2022/09/28 04:39:57;;;;;;;4.90;2.13;;;;;;;12.80;83.13;98572.88;4993421;28;20264;-61
2022/09/28 04:42:25;;;;;;;4.27;2.07;;;;;;;12.76;83.52;98568.16;4991624;28;20210;-62
2022/09/28 04:44:54;;;;;;;3.87;2.17;;;;;;;12.80;82.84;98569.38;4994604;28;20212;-62
2022/09/28 04:47:21;;;;;;;5.07;1.60;;;;;;;12.85;82.20;98576.72;4994851;28;20222;-63
2022/09/28 04:49:49;;;;;;;5.27;1.90;;;;;;;12.72;83.43;98574.94;4995957;28;20635;-61
2022/09/28 04:52:17;;;;;;;5.50;2.07;;;;;;;12.68;83.72;98579.00;4994942;28;20257;-61
2022/09/28 04:54:46;;;;;;;6.00;2.17;;;;;;;12.66;83.47;98570.44;4994147;28;20594;-61
2022/09/28 04:57:14;;;;;;;4.83;2.13;;;;;;;12.64;83.60;98577.81;4994954;28;20218;-62
2022/09/28 04:59:41;;;;;;;3.43;1.93;;;;;;;12.62;83.74;98588.63;4992567;28;20218;-62
2022/09/28 05:02:09;;;;;;;6.77;2.20;;;;;;;12.64;83.67;98588.44;4992818;28;20284;-62
2022/09/28 05:04:37;;;;;;;8.57;2.30;;;;;;;12.59;84.34;98593.53;4989531;28;20213;-62
2022/09/28 05:07:05;;;;;;;5.00;2.53;;;;;;;12.63;83.87;98597.44;4995019;28;20210;-62
2022/09/28 05:09:32;;;;;;;5.00;2.33;;;;;;;12.64;83.60;98601.72;5006946;28;20226;-61
2022/09/28 05:12:08;;;;;;;5.97;2.40;;;;;;;12.64;83.36;98601.72;4993827;28;20229;-63
2022/09/28 05:14:35;;;;;;;4.93;2.30;;;;;;;12.57;83.90;98604.41;4994594;28;20217;-62
2022/09/28 05:17:03;;;;;;;7.63;2.37;;;;;;;12.54;83.98;98609.31;4994171;28;20210;-62
2022/09/28 05:19:32;;;;;;;6.57;2.20;;;;;;;12.60;83.58;98611.94;4993159;28;20216;-61
2022/09/28 05:22:02;;;;;;;6.47;2.60;;;;;;;12.70;82.58;98608.88;4993147;28;20234;-62
2022/09/28 05:24:30;;;;;;;5.27;2.20;;;;;;;12.59;82.97;98602.34;4992634;28;20377;-61
2022/09/28 05:26:58;;;;;;;5.23;2.20;;;;;;;12.59;83.06;98598.84;4989407;28;20206;-62
2022/09/28 05:29:27;;;;;;;5.10;1.97;;;;;;;12.59;83.36;98606.84;4993773;28;20208;-62
2022/09/28 05:32:00;;;;;;;4.93;2.10;;;;;;;12.55;83.89;98608.28;4993192;28;20297;-63
2022/09/28 05:34:28;;;;;;;4.60;1.80;;;;;;;12.52;84.09;98611.34;4992956;28;20260;-62
2022/09/28 05:36:56;;;;;;;4.93;2.07;;;;;;;12.54;83.48;98612.78;4990240;28;20260;-63
2022/09/28 05:39:23;;;;;;;11.73;2.10;;;;;;;12.57;83.16;98615.03;4993744;28;20312;-63
2022/09/28 05:41:51;;;;;;;7.37;2.10;;;;;;;12.58;82.55;98621.16;4993403;28;20222;-62
2022/09/28 05:44:19;;;;;;;10.33;2.73;;;;;;;12.61;82.16;98624.22;4991765;28;20582;-62
2022/09/28 05:46:48;;;;;;;4.10;2.30;;;;;;;12.60;82.29;98630.56;4989034;28;20806;-62
2022/09/28 05:49:15;;;;;;;4.07;2.00;;;;;;;12.62;81.73;98619.72;4999986;28;20218;-62
2022/09/28 05:51:43;;;;;;;6.20;2.63;;;;;;;12.63;82.11;98632.00;4995084;28;20215;-63
2022/09/28 05:54:11;;;;;;;5.30;2.30;;;;;;;12.58;82.30;98629.13;4993455;28;20212;-62
2022/09/28 05:56:38;;;;;;;6.13;2.40;;;;;;;12.65;82.01;98635.28;4991577;28;20344;-63
2022/09/28 05:59:06;;;;;;;5.07;2.13;;;;;;;12.64;82.05;98638.97;4993614;28;20214;-62
2022/09/28 06:01:34;;;;;;;7.13;2.10;;;;;;;12.67;81.76;98639.34;4992651;28;20233;-63
2022/09/28 06:04:03;;;;;;;4.37;2.10;;;;;;;12.73;81.11;98643.03;4993616;28;20885;-63
2022/09/28 06:06:30;;;;;;;9.60;2.53;;;;;;;12.68;80.92;98645.47;4992408;28;20547;-62
2022/09/28 06:08:58;;;;;;;4.33;2.03;;;;;;;12.66;81.58;98648.38;4993111;28;20210;-63
2022/09/28 06:11:26;;;;;;;5.60;2.60;;;;;;;12.65;81.46;98640.59;4992812;28;20206;-61
2022/09/28 06:13:55;;;;;;;4.87;2.00;;;;;;;12.74;81.01;98645.50;4992950;28;20210;-62
2022/09/28 06:16:23;;;;;;;5.13;2.00;;;;;;;12.82;80.53;98649.78;4991593;28;20214;-63
2022/09/28 06:18:50;;;;;;;7.80;2.30;;;;;;;12.88;80.13;98646.28;4993243;28;20301;-62
2022/09/28 06:21:19;;;;;;;7.40;2.37;;;;;;;12.89;80.15;98653.25;4992464;28;20230;-61
2022/09/28 06:23:47;;;;;;;5.43;2.37;;;;;;;12.92;79.86;98658.16;4993118;28;20712;-62
2022/09/28 06:26:16;;;;;;;5.07;2.40;;;;;;;12.94;79.84;98661.41;4991724;28;20297;-61
2022/09/28 06:28:44;;;;;;;6.87;2.80;;;;;;;12.96;79.71;98658.56;4991354;28;20221;-62
2022/09/28 06:31:12;;;;;;;5.40;2.10;;;;;;;12.86;79.95;98664.28;4992618;28;20226;-61
2022/09/28 06:33:40;;;;;;;6.90;2.37;;;;;;;12.88;79.18;98664.91;4992240;28;20238;-63
2022/09/28 06:36:09;;;;;;;5.87;2.10;;;;;;;12.96;78.94;98669.19;4994333;28;20736;-63
2022/09/28 06:38:38;;;;;;;9.27;2.13;;;;;;;12.94;79.48;98672.06;4994559;28;20210;-62
2022/09/28 06:41:06;;;;;;;6.13;1.80;;;;;;;12.95;79.61;98679.00;4991440;28;20663;-62
2022/09/28 06:43:33;;;;;;;4.23;2.00;;;;;;;13.02;79.26;98674.50;4992637;28;20249;-61
2022/09/28 06:46:02;;;;;;;4.33;1.90;;;;;;;13.02;79.57;98677.16;4992070;28;20210;-62
2022/09/28 06:48:32;;;;;;;4.80;1.40;;;;;;;12.99;78.75;98680.25;4991627;28;20268;-62
2022/09/28 06:51:00;;;;;;;3.97;1.20;;;;;;;12.99;76.86;98674.94;4991591;28;20206;-63
2022/09/28 06:53:29;;;;;;;4.53;1.20;;;;;;;12.99;76.68;98680.25;4992377;28;20610;-61
2022/09/28 06:55:58;;;;;;;4.07;1.00;;;;;;;13.05;76.51;98679.41;4992046;28;20699;-62
2022/09/28 06:58:27;;;;;;;2.83;1.00;;;;;;;13.11;76.62;98683.06;4991443;28;20213;-61
2022/09/28 07:00:58;;;;;;;5.37;1.27;;;;;;;13.23;76.57;98692.09;4987864;28;20214;-62
2022/09/28 07:03:27;;;;;;;6.47;1.20;;;;;;;13.30;76.30;98697.41;4988886;28;20235;-63
2022/09/28 07:05:56;;;;;;;4.73;0.93;;;;;;;13.24;75.73;98693.75;4992853;28;20208;-62
2022/09/28 07:08:25;;;;;;;7.37;1.47;;;;;;;13.27;75.69;98693.34;4999052;28;20210;-62
2022/09/28 07:10:55;;;;;;;5.67;1.27;;;;;;;13.24;75.64;98698.25;4993551;28;20616;-64
2022/09/28 07:13:25;;;;;;;5.03;1.40;;;;;;;13.28;75.33;98702.16;4991753;28;20209;-63
2022/09/28 07:16:13;;;;;;;6.87;1.57;;;;;;;13.28;75.62;98712.78;4991204;28;20214;-63
2022/09/28 07:18:41;;;;;;;4.50;1.43;;;;;;;13.21;75.94;98715.44;4992355;28;20215;-62
2022/09/28 07:21:08;;;;;;;5.00;1.50;;;;;;;13.31;75.63;98715.00;4991774;28;20214;-63
2022/09/28 07:23:48;;;;;;;5.20;1.53;;;;;;;13.37;75.32;98719.53;4992669;28;20298;-61
2022/09/28 07:26:21;;;;;;;4.10;1.07;;;;;;;13.32;75.27;98721.97;4983747;28;20239;-62
2022/09/28 07:28:54;;;;;;;7.97;1.30;;;;;;;13.40;74.92;98721.75;4982648;28;20217;-63
2022/09/28 07:31:24;;;;;;;5.40;1.87;;;;;;;13.37;75.09;98728.31;4990207;28;20254;-63
2022/09/28 07:33:52;;;;;;;4.37;1.27;;;;;;;13.46;73.80;98731.56;4992493;28;20240;-63
2022/09/28 07:36:21;;;;;;;2.93;1.27;;;;;;;13.50;73.79;98741.59;4994225;28;20224;-62
2022/09/28 07:38:49;;;;;;;5.17;2.17;;;;;;;13.55;74.29;98744.44;4991886;28;20215;-62
2022/09/28 07:41:21;;;;;;;6.97;1.77;;;;;;;13.59;75.58;98744.84;4992209;28;20363;-63
2022/09/28 07:43:49;;;;;;;3.63;1.27;;;;;;;13.57;75.59;98755.72;4992480;28;20222;-61
2022/09/28 07:46:20;;;;;;;6.00;1.50;;;;;;;13.62;73.74;98759.59;4990254;28;20220;-61
2022/09/28 07:48:48;;;;;;;5.80;1.57;;;;;;;13.62;73.27;98759.59;4991780;28;20208;-63
2022/09/28 07:51:18;;;;;;;2.87;1.30;;;;;;;13.64;73.29;98762.84;4992121;28;20268;-63
2022/09/28 07:53:47;;;;;;;5.77;1.63;;;;;;;13.71;73.16;98764.50;4987212;28;20659;-62
2022/09/28 07:56:17;;;;;;;7.83;1.60;;;;;;;13.81;73.96;98770.19;4992211;28;20211;-63
2022/09/28 07:58:47;;;;;;;4.43;1.43;;;;;;;13.86;74.94;98778.38;4991640;28;20670;-61
2022/09/28 08:01:15;;;;;;;9.63;1.73;;;;;;;13.89;73.76;98777.97;4991353;28;20219;-63
2022/09/28 08:03:46;;;;;;;4.93;1.53;;;;;;;13.99;72.32;98776.69;4991820;28;20587;-61
2022/09/28 08:06:16;;;;;;;6.00;1.63;;;;;;;14.07;71.03;98771.94;4991077;28;20215;-62
2022/09/28 08:08:44;;;;;;;3.97;1.60;;;;;;;14.18;69.80;98781.13;4990049;28;20207;-62
2022/09/28 08:11:13;;;;;;;11.60;1.67;;;;;;;14.21;69.94;98778.03;4990453;28;20665;-63
2022/09/28 08:13:42;;;;;;;5.67;2.20;;;;;;;14.22;70.13;98783.16;4989587;28;20232;-63
2022/09/28 08:16:10;;;;;;;4.40;1.80;;;;;;;14.16;69.75;98781.31;4988715;28;20212;-62
2022/09/28 08:18:37;;;;;;;7.97;1.77;;;;;;;14.16;69.38;98788.53;4991030;28;20549;-62
2022/09/28 08:23:52;;;;;;;3.53;1.30;;;;;;;14.21;68.71;98802.03;4989528;28;20228;-62
2022/09/28 08:26:20;;;;;;;3.47;1.30;;;;;;;14.26;68.65;98795.03;4984173;28;20216;-63
2022/09/28 08:28:48;;;;;;;2.87;1.00;;;;;;;14.35;68.08;98805.44;4990021;28;20213;-63
2022/09/28 08:31:15;;;;;;;3.90;1.20;;;;;;;14.47;67.57;98793.94;4989875;28;20253;-62
2022/09/28 08:33:43;;;;;;;8.67;1.70;;;;;;;14.65;67.07;98801.22;4990721;28;20255;-63
2022/09/28 08:36:12;;;;;;;3.17;0.90;;;;;;;15.09;65.56;98802.16;4993058;28;20214;-63
2022/09/28 08:38:40;;;;;;;6.17;0.80;;;;;;;15.42;61.25;98795.47;4998266;28;20217;-61
2022/09/28 08:41:18;;;;;;;3.97;1.00;;;;;;;15.89;59.13;98801.22;4986339;28;20250;-61
2022/09/28 08:44:01;;;;;;;8.33;1.27;;;;;;;16.43;57.07;98799.53;4983717;28;20704;-61
2022/09/28 08:46:33;;;;;;;4.17;1.20;;;;;;;17.82;54.06;98801.69;4991363;28;20214;-62
2022/09/28 08:49:07;;;;;;;2.30;0.70;;;;;;;19.79;47.34;98798.28;4989408;28;20685;-62
2022/09/28 08:52:00;;;;;;;3.87;1.00;;;;;;;19.89;47.00;98799.22;4990629;28;20562;-62
2022/09/28 08:54:37;;;;;;;3.83;0.90;;;;;;;19.39;47.21;98803.84;4991487;28;20206;-61
2022/09/28 08:57:11;;;;;;;4.37;1.00;;;;;;;18.47;48.30;98814.03;4990731;28;20214;-64
2022/09/28 08:59:46;;;;;;;5.93;1.03;;;;;;;19.95;45.64;98805.50;4991097;28;20341;-62
2022/09/28 09:02:18;;;;;;;2.50;0.73;;;;;;;19.63;45.12;98813.38;4990629;28;20279;-63
2022/09/28 09:04:46;;;;;;;1.93;0.97;;;;;;;18.83;47.91;98816.31;4991176;28;20210;-63
2022/09/28 09:07:32;;;;;;;4.03;0.73;;;;;;;20.99;44.22;98808.03;4990201;28;20216;-61
2022/09/28 09:10:12;;;;;;;6.67;1.43;;;;;;;20.98;43.86;98814.47;4981264;28;20265;-61
2022/09/28 09:12:49;;;;;;;4.93;0.70;;;;;;;21.86;42.00;98813.03;4991019;28;20834;-64
2022/09/28 09:15:27;;;;;;;3.83;0.80;;;;;;;21.79;40.87;98815.16;4993888;28;20272;-65
2022/09/28 09:18:09;;;;;;;4.23;0.93;;;;;;;20.85;42.53;98818.38;4991595;28;20215;-64
2022/09/28 09:20:45;;;;;;;6.70;0.93;;;;;;;19.68;44.42;98818.84;4990275;28;20224;-62
2022/09/28 09:23:19;;;;;;;1.27;0.50;;;;;;;18.56;45.59;98817.94;4989246;28;20228;-63
2022/09/28 09:25:53;;;;;;;1.77;0.60;;;;;;;17.80;47.66;98827.09;4994070;28;20210;-63
2022/09/28 09:28:39;;;;;;;4.93;0.90;;;;;;;17.18;49.19;98824.81;4994072;28;20206;-61
2022/09/28 09:31:22;;;;;;;3.40;0.53;;;;;;;16.90;50.19;98824.63;4986194;28;20245;-62
2022/09/28 09:34:14;;;;;;;4.10;0.73;;;;;;;16.86;51.23;98826.13;4994054;28;20234;-62
2022/09/28 09:36:59;;;;;;;1.93;0.60;;;;;;;16.51;50.85;98826.78;4998380;28;20244;-63
2022/09/28 09:39:41;;;;;;;2.30;0.90;;;;;;;16.18;52.46;98821.06;4993697;28;20655;-62
2022/09/28 09:42:25;;;;;;;6.23;1.07;;;;;;;15.90;53.48;98821.56;4987493;28;20695;-62
2022/09/28 09:45:08;;;;;;;2.97;1.10;;;;;;;15.66;54.39;98822.41;4994175;28;20238;-62
2022/09/28 09:47:41;;;;;;;3.93;1.10;;;;;;;15.53;55.16;98822.50;4994082;28;20216;-63
2022/09/28 09:50:18;;;;;;;5.03;0.97;;;;;;;15.52;55.35;98826.22;4992233;28;20213;-62
2022/09/28 09:52:55;;;;;;;2.83;0.97;;;;;;;15.61;55.96;98816.91;4994489;28;20280;-61
2022/09/28 09:55:28;;;;;;;4.47;1.87;;;;;;;15.97;55.26;98816.13;4980855;28;20206;-63
2022/09/28 09:58:04;;;;;;;4.37;1.30;;;;;;;16.05;55.08;98818.50;4993930;28;20226;-63
2022/09/28 10:00:33;;;;;;;3.60;1.37;;;;;;;16.15;53.88;98816.97;4992917;28;20264;-63
2022/09/28 10:03:02;;;;;;;3.90;1.00;;;;;;;16.16;53.58;98815.91;4993763;28;20238;-63
2022/09/28 10:05:32;;;;;;;3.23;1.03;;;;;;;16.11;53.29;98823.78;4993893;28;20649;-63
2022/09/28 10:08:03;;;;;;;5.17;0.70;;;;;;;15.99;50.69;98816.75;4999513;28;20236;-62
2022/09/28 10:10:35;;;;;;;2.20;0.83;;;;;;;15.94;51.39;98822.75;4991598;28;20682;-63
2022/09/28 10:13:03;;;;;;;3.23;0.90;;;;;;;15.92;50.96;98822.13;4981679;28;20718;-62
2022/09/28 10:15:34;;;;;;;3.77;0.90;;;;;;;15.88;51.15;98820.97;4987812;28;20702;-63
2022/09/28 10:18:06;;;;;;;2.20;0.90;;;;;;;15.95;50.85;98821.69;4982641;28;20206;-62
2022/09/28 10:20:38;;;;;;;5.77;1.40;;;;;;;16.07;51.57;98819.94;4992429;28;20293;-62
2022/09/28 10:23:13;;;;;;;2.63;1.07;;;;;;;16.14;51.39;98818.00;4980445;28;20213;-63
2022/09/28 10:25:46;;;;;;;2.33;0.60;;;;;;;16.23;50.80;98823.03;4985507;28;20280;-62
2022/09/28 10:28:19;;;;;;;4.33;1.07;;;;;;;16.55;50.24;98824.47;4992972;28;21634;-62
2022/09/28 10:30:46;;;;;;;3.80;0.97;;;;;;;16.71;49.93;98815.81;4991533;28;20214;-63
2022/09/28 10:33:35;;;;;;;1.50;0.80;;;;;;;16.72;49.53;98822.81;4984606;28;20252;-63
2022/09/28 10:36:07;;;;;;;2.67;0.70;;;;;;;16.73;50.01;98820.97;4982468;28;20210;-61
2022/09/28 10:38:35;;;;;;;2.90;0.70;;;;;;;16.64;49.81;98828.50;5004731;28;20206;-62
2022/09/28 10:41:10;;;;;;;3.07;0.63;;;;;;;16.69;49.59;98823.28;4992641;28;20207;-61
2022/09/28 10:43:39;;;;;;;3.00;0.70;;;;;;;17.00;50.24;98840.94;4990960;28;20696;-61
2022/09/28 10:46:09;;;;;;;3.10;0.90;;;;;;;17.16;47.70;98834.94;4990835;28;20218;-62
2022/09/28 10:48:50;;;;;;;2.37;0.70;;;;;;;17.06;48.11;98834.69;4978854;28;20249;-62
2022/09/28 10:51:18;;;;;;;2.73;0.67;;;;;;;16.83;47.91;98834.63;4991847;28;20288;-62
2022/09/28 10:53:59;;;;;;;3.70;1.00;;;;;;;16.60;49.16;98840.69;4985828;28;20260;-61
2022/09/28 10:56:31;;;;;;;2.40;0.83;;;;;;;16.55;49.78;98838.66;4992661;28;20222;-62
2022/09/28 10:58:59;;;;;;;3.87;0.80;;;;;;;16.64;49.01;98839.19;4988891;28;20206;-61
2022/09/28 11:01:33;;;;;;;3.10;0.67;;;;;;;16.77;48.00;98831.00;4988126;28;20328;-62
2022/09/28 11:04:02;;;;;;;3.57;1.30;;;;;;;16.76;49.17;98833.91;4992633;28;20353;-62
2022/09/28 11:06:35;;;;;;;2.50;0.70;;;;;;;16.72;48.70;98838.88;4992672;28;20206;-62
2022/09/28 11:09:05;;;;;;;3.00;0.70;;;;;;;16.59;49.53;98833.69;4992049;28;20203;-64
2022/09/28 11:11:41;;;;;;;7.80;0.80;;;;;;;16.41;49.85;98831.88;4991891;28;20210;-63
2022/09/28 11:14:26;;;;;;;5.03;1.10;;;;;;;16.25;48.35;98834.34;4991636;28;20241;-63
2022/09/28 11:17:15;;;;;;;6.00;0.93;;;;;;;16.02;51.12;98833.13;4984405;28;20206;-61
2022/09/28 11:19:43;;;;;;;3.67;1.10;;;;;;;15.89;50.72;98837.81;4987299;28;20202;-62
2022/09/28 11:22:21;;;;;;;4.90;0.70;;;;;;;15.78;51.67;98842.03;4992165;28;20566;-63
2022/09/28 11:24:49;;;;;;;2.93;0.90;;;;;;;15.67;51.95;98843.56;4975536;28;20223;-62
2022/09/28 11:27:23;;;;;;;4.57;0.60;;;;;;;15.62;51.83;98842.59;4991011;28;20221;-62
2022/09/28 11:29:56;;;;;;;2.07;0.60;;;;;;;15.51;52.85;98840.59;4991592;28;20216;-62
2022/09/28 11:32:28;;;;;;;2.60;0.80;;;;;;;15.45;53.70;98834.31;4991871;28;20761;-62
2022/09/28 11:34:59;;;;;;;2.50;0.90;;;;;;;15.43;nan;98836.38;4992030;28;20555;-62
2022/09/28 11:37:53;;;;;;;2.03;0.70;;;;;;;15.37;52.21;98832.72;4995022;28;20210;-62
2022/09/28 11:40:29;;;;;;;2.93;0.70;;;;;;;15.35;53.76;98834.78;4988490;28;20273;-63
2022/09/28 11:43:09;;;;;;;1.13;0.43;;;;;;;15.41;53.92;98841.09;4981392;28;20606;-63
2022/09/28 11:45:51;;;;;;;2.17;0.70;;;;;;;15.46;53.24;98832.44;4982765;28;20678;-62
2022/09/28 11:48:25;;;;;;;4.87;0.63;;;;;;;15.53;53.52;98841.22;4990244;28;20213;-62
2022/09/28 11:50:58;;;;;;;3.30;0.63;;;;;;;15.58;52.38;98836.06;4991013;28;20209;-62
2022/09/28 11:53:33;;;;;;;4.10;0.80;;;;;;;15.67;52.75;98840.06;4991946;28;20210;-63
2022/09/28 11:56:08;;;;;;;1.87;0.60;;;;;;;15.68;53.61;98841.72;4990688;28;20209;-63
2022/09/28 11:58:42;;;;;;;2.73;0.80;;;;;;;15.72;54.75;98842.94;4991362;28;20240;-63
2022/09/28 12:01:22;;;;;;;2.87;0.50;;;;;;;15.75;53.90;98837.13;4991454;28;20232;-63